createdAt,value
2022-10-03T00:03:30.647Z,100.00
2022-10-03T00:07:10.545Z,100.00
2022-10-03T00:10:31.546Z,100.00
2022-10-03T00:14:11.210Z,100.00
2022-10-03T00:17:42.998Z,100.00
2022-10-03T00:21:37.377Z,100.00
2022-10-03T00:24:54.645Z,100.00
2022-10-03T00:28:05.820Z,100.00
2022-10-03T00:31:28.219Z,99.64
2022-10-03T00:34:59.129Z,99.18
2022-10-03T00:38:18.313Z,98.92
2022-10-03T00:41:41.486Z,99.39
2022-10-03T00:45:27.168Z,99.81
2022-10-03T00:48:53.609Z,100.00
2022-10-03T00:52:00.006Z,100.00
2022-10-03T00:55:13.879Z,100.00
2022-10-03T00:58:26.037Z,100.00
2022-10-03T01:01:58.833Z,100.00
2022-10-03T01:05:36.600Z,100.00
2022-10-03T01:09:38.777Z,100.00
2022-10-03T01:13:04.710Z,100.00
2022-10-03T01:16:44.628Z,100.00
2022-10-03T01:20:19.647Z,100.00
2022-10-03T01:23:52.517Z,100.00
2022-10-03T01:27:22.279Z,100.00
2022-10-03T01:30:31.745Z,100.00
2022-10-03T01:33:48.503Z,100.00
2022-10-03T01:37:22.245Z,100.00
2022-10-03T01:40:54.422Z,100.00
2022-10-03T01:44:13.107Z,100.00
2022-10-03T01:47:35.423Z,100.00
2022-10-03T01:51:18.360Z,100.00
2022-10-03T01:54:55.931Z,100.00
2022-10-03T01:58:23.408Z,100.00
2022-10-03T02:02:14.023Z,100.00
2022-10-03T02:05:46.873Z,100.00
2022-10-03T02:09:12.691Z,100.00
2022-10-03T02:12:26.154Z,100.00
2022-10-03T02:16:00.931Z,100.00
2022-10-03T02:19:24.553Z,100.00
2022-10-03T02:22:46.180Z,100.00
2022-10-03T02:25:53.145Z,100.00
2022-10-03T02:29:26.281Z,100.00
2022-10-03T02:33:08.103Z,100.00
2022-10-03T02:37:02.032Z,100.00
2022-10-03T02:40:47.639Z,100.00
2022-10-03T02:44:24.564Z,100.00
2022-10-03T02:48:30.847Z,100.00
2022-10-03T02:51:54.764Z,100.00
2022-10-03T02:55:35.580Z,100.00
2022-10-03T02:59:34.529Z,100.00
2022-10-03T03:03:25.706Z,100.00
2022-10-03T03:06:59.357Z,100.00
2022-10-03T03:10:35.648Z,100.00
2022-10-03T03:14:01.790Z,100.00
2022-10-03T03:17:30.332Z,100.00
2022-10-03T03:20:48.027Z,100.00
2022-10-03T03:24:17.487Z,100.00
2022-10-03T03:27:43.734Z,100.00
2022-10-03T03:31:09.006Z,100.00
2022-10-03T03:34:19.644Z,100.00
2022-10-03T03:37:30.267Z,100.00
2022-10-03T03:40:47.376Z,100.00
2022-10-03T03:44:36.816Z,100.00
2022-10-03T03:48:04.532Z,100.00
2022-10-03T03:51:28.138Z,100.00
2022-10-03T03:55:04.667Z,100.00
2022-10-03T03:58:41.631Z,100.00
2022-10-03T04:02:06.864Z,100.00
2022-10-03T04:05:38.998Z,100.00
2022-10-03T04:09:18.534Z,100.00
2022-10-03T04:13:04.838Z,100.00
2022-10-03T04:16:32.644Z,100.00
2022-10-03T04:20:11.408Z,100.00
2022-10-03T04:23:40.894Z,100.00
2022-10-03T04:27:06.618Z,100.00
2022-10-03T04:30:36.338Z,100.00
2022-10-03T04:34:05.851Z,100.00
2022-10-03T04:37:35.245Z,100.00
2022-10-03T04:41:29.431Z,100.00
2022-10-03T04:45:11.825Z,100.00
2022-10-03T04:48:40.403Z,100.00
2022-10-03T04:52:29.008Z,100.00
2022-10-03T04:56:02.736Z,100.00
2022-10-03T04:59:47.517Z,100.00
2022-10-03T05:03:29.158Z,100.00
2022-10-03T05:06:54.031Z,100.00
2022-10-03T05:10:18.786Z,100.00
2022-10-03T05:14:06.597Z,100.00
2022-10-03T05:17:32.184Z,100.00
2022-10-03T05:20:48.744Z,100.00
2022-10-03T05:24:20.907Z,100.00
2022-10-03T05:28:03.881Z,100.00
2022-10-03T05:31:20.831Z,100.00
2022-10-03T05:35:06.431Z,100.00
2022-10-03T05:38:35.038Z,100.00
2022-10-03T05:42:10.937Z,100.00
2022-10-03T05:45:12.488Z,100.00
2022-10-03T05:48:54.741Z,100.00
2022-10-03T05:52:32.872Z,100.00
2022-10-03T05:56:16.256Z,100.00
2022-10-03T06:00:17.788Z,100.00
2022-10-03T06:04:20.976Z,100.00
2022-10-03T06:07:49.134Z,100.00
2022-10-03T06:11:27.158Z,100.00
2022-10-03T06:14:52.529Z,100.00
2022-10-03T06:18:38.903Z,100.00
2022-10-03T06:22:35.938Z,100.00
2022-10-03T06:25:52.176Z,100.00
2022-10-03T06:29:35.947Z,100.00
2022-10-03T06:33:17.923Z,100.00
2022-10-03T06:36:31.250Z,100.00
2022-10-03T06:40:18.462Z,100.00
2022-10-03T06:43:55.146Z,100.00
2022-10-03T06:47:17.483Z,100.00
2022-10-03T06:51:08.933Z,100.00
2022-10-03T06:54:55.729Z,100.00
2022-10-03T06:58:35.440Z,98.94
2022-10-03T07:02:10.176Z,98.08
2022-10-03T07:05:43.783Z,95.78
2022-10-03T07:09:18.147Z,95.62
2022-10-03T07:12:58.899Z,95.41
2022-10-03T07:16:28.621Z,94.17
2022-10-03T07:20:01.263Z,93.39
2022-10-03T07:23:25.970Z,92.90
2022-10-03T07:27:11.669Z,91.39
2022-10-03T07:30:32.426Z,91.35
2022-10-03T07:33:44.939Z,90.82
2022-10-03T07:37:37.907Z,88.94
2022-10-03T07:41:04.511Z,87.01
2022-10-03T07:44:23.607Z,88.91
2022-10-03T07:48:08.533Z,88.19
2022-10-03T07:51:51.667Z,85.91
2022-10-03T07:55:29.527Z,86.59
2022-10-03T07:59:01.236Z,86.01
2022-10-03T08:06:14.289Z,83.64
2022-10-03T08:09:31.370Z,83.34
2022-10-03T09:40:07.178Z,70.32
2022-10-03T09:43:29.143Z,69.78
2022-10-03T09:46:59.144Z,72.30
2022-10-03T09:50:27.857Z,70.74
2022-10-03T09:54:08.240Z,68.01
2022-10-03T09:57:52.370Z,69.42
2022-10-03T10:01:24.328Z,70.36
2022-10-03T10:05:15.071Z,69.50
2022-10-03T10:08:27.590Z,67.52
2022-10-03T10:12:18.626Z,66.93
2022-10-03T10:15:54.237Z,65.03
2022-10-03T10:19:16.451Z,62.95
2022-10-03T10:22:51.511Z,62.61
2022-10-03T10:26:29.373Z,62.16
2022-10-03T10:29:31.468Z,62.69
2022-10-03T10:32:56.402Z,63.19
2022-10-03T10:36:39.597Z,64.02
2022-10-03T10:39:53.469Z,64.78
2022-10-03T10:43:25.744Z,64.73
2022-10-03T10:47:07.304Z,64.82
2022-10-03T10:51:09.821Z,64.08
2022-10-03T10:55:00.582Z,63.09
2022-10-03T10:58:39.747Z,61.04
2022-10-03T11:02:24.448Z,62.47
2022-10-03T11:06:12.112Z,64.41
2022-10-03T11:09:51.673Z,62.66
2022-10-03T11:13:37.623Z,64.04
2022-10-03T11:17:21.462Z,62.11
2022-10-03T11:21:08.334Z,62.68
2022-10-03T11:24:46.060Z,63.03
2022-10-03T11:28:47.145Z,61.49
2022-10-03T11:32:19.758Z,61.83
2022-10-03T11:36:02.276Z,61.92
2022-10-03T11:39:20.686Z,62.66
2022-10-03T11:42:57.341Z,61.29
2022-10-03T11:46:08.397Z,59.75
2022-10-03T11:49:40.873Z,61.47
2022-10-03T11:52:59.341Z,61.16
2022-10-03T11:56:36.422Z,61.78
2022-10-03T12:00:05.325Z,62.31
2022-10-03T12:03:37.336Z,60.79
2022-10-03T12:07:21.353Z,60.87
2022-10-03T12:10:51.925Z,60.63
2022-10-03T12:14:35.669Z,59.87
2022-10-03T12:17:50.754Z,59.25
2022-10-03T12:21:26.544Z,60.68
2022-10-03T12:24:43.841Z,60.52
2022-10-03T12:28:08.966Z,61.72
2022-10-03T12:31:53.674Z,62.87
2022-10-03T12:35:07.857Z,61.33
2022-10-03T12:38:41.628Z,61.08
2022-10-03T12:42:13.810Z,61.37
2022-10-03T12:45:32.585Z,61.43
2022-10-03T12:49:18.246Z,62.91
2022-10-03T12:52:31.785Z,62.26
2022-10-03T12:55:42.626Z,62.33
2022-10-03T12:59:10.967Z,62.46
2022-10-03T13:02:46.705Z,61.47
2022-10-03T13:06:26.686Z,61.62
2022-10-03T13:10:03.300Z,61.94
2022-10-03T13:13:19.116Z,62.48
2022-10-03T13:16:50.382Z,63.40
2022-10-03T13:20:17.487Z,64.18
2022-10-03T13:23:42.174Z,64.33
2022-10-03T13:27:28.051Z,63.84
2022-10-03T13:30:45.048Z,63.54
2022-10-03T13:33:49.374Z,63.98
2022-10-03T13:36:53.220Z,64.61
2022-10-03T13:40:07.005Z,63.44
2022-10-03T13:43:12.934Z,63.41
2022-10-03T13:46:35.688Z,63.12
2022-10-03T13:49:47.510Z,63.73
2022-10-03T13:53:10.294Z,63.11
2022-10-03T13:56:23.754Z,64.01
2022-10-03T13:59:41.153Z,64.16
2022-10-03T14:03:16.082Z,64.11
2022-10-03T14:06:47.550Z,65.31
2022-10-03T14:10:16.080Z,66.08
2022-10-03T14:13:50.134Z,66.88
2022-10-03T14:17:10.676Z,66.77
2022-10-03T14:20:42.672Z,66.78
2022-10-03T14:23:59.223Z,66.40
2022-10-03T14:27:15.072Z,66.48
2022-10-03T14:30:24.758Z,66.12
2022-10-03T14:33:46.062Z,65.99
2022-10-03T14:37:17.448Z,65.39
2022-10-03T14:40:42.068Z,65.75
2022-10-03T14:44:00.848Z,66.29
2022-10-03T14:47:03.693Z,66.76
2022-10-03T14:50:13.395Z,67.97
2022-10-03T14:53:32.068Z,68.75
2022-10-03T14:56:37.793Z,68.66
2022-10-03T14:59:50.427Z,68.97
2022-10-03T15:03:00.707Z,69.35
2022-10-03T15:06:26.458Z,70.06
2022-10-03T15:09:41.033Z,71.01
2022-10-03T15:12:47.390Z,71.81
2022-10-03T15:15:54.886Z,72.97
2022-10-03T15:19:11.069Z,73.82
2022-10-03T15:22:23.331Z,74.69
2022-10-03T15:25:40.541Z,75.21
2022-10-03T15:29:06.991Z,75.95
2022-10-03T15:32:13.110Z,76.62
2022-10-03T15:35:19.741Z,76.84
2022-10-03T15:38:31.964Z,77.43
2022-10-03T15:41:43.677Z,77.77
2022-10-03T15:45:05.792Z,78.39
2022-10-03T15:48:14.701Z,78.62
2022-10-03T15:51:23.574Z,79.00
2022-10-03T15:54:39.290Z,79.33
2022-10-03T15:57:40.612Z,80.07
2022-10-03T16:00:47.856Z,80.80
2022-10-03T16:04:14.702Z,81.68
2022-10-03T16:07:43.334Z,82.23
2022-10-03T16:10:59.191Z,82.92
2022-10-03T16:14:28.416Z,83.65
2022-10-03T16:17:51.363Z,84.27
2022-10-03T16:20:58.324Z,84.61
2022-10-03T16:24:04.538Z,85.21
2022-10-03T16:27:23.358Z,85.81
2022-10-03T16:30:32.750Z,86.43
2022-10-03T16:33:57.290Z,86.98
2022-10-03T16:37:01.401Z,87.05
2022-10-03T16:40:14.922Z,87.73
2022-10-03T16:43:21.455Z,88.20
2022-10-03T16:46:32.711Z,88.40
2022-10-03T16:50:00.843Z,88.95
2022-10-03T16:53:08.762Z,89.11
2022-10-03T16:56:22.667Z,89.56
2022-10-03T16:59:32.087Z,89.61
2022-10-03T17:02:35.656Z,89.72
2022-10-03T17:05:41.772Z,89.57
2022-10-03T17:08:49.290Z,89.30
2022-10-03T17:11:55.249Z,88.95
2022-10-03T17:15:01.681Z,88.59
2022-10-03T17:18:26.453Z,88.38
2022-10-03T17:21:43.197Z,88.54
2022-10-03T17:25:18.093Z,88.81
2022-10-03T17:28:32.215Z,89.17
2022-10-03T17:31:51.286Z,89.11
2022-10-03T17:35:14.253Z,89.41
2022-10-03T17:38:48.795Z,89.82
2022-10-03T17:41:51.772Z,90.43
2022-10-03T17:45:35.466Z,90.68
2022-10-03T17:48:53.928Z,90.91
2022-10-03T17:52:00.870Z,90.26
2022-10-03T17:55:12.408Z,89.89
2022-10-03T17:58:27.066Z,89.69
2022-10-03T18:01:36.412Z,90.37
2022-10-03T18:04:52.803Z,90.32
2022-10-03T18:08:00.649Z,89.82
2022-10-03T18:11:09.841Z,89.91
2022-10-03T18:14:34.926Z,90.26
2022-10-03T18:17:48.972Z,90.49
2022-10-03T18:21:29.444Z,91.00
2022-10-03T18:25:01.793Z,92.58
2022-10-03T18:28:17.243Z,95.11
2022-10-03T18:31:32.876Z,97.62
2022-10-03T18:34:59.844Z,99.42
2022-10-03T18:38:32.211Z,100.00
2022-10-03T18:41:38.257Z,100.00
2022-10-03T18:44:47.182Z,100.00
2022-10-03T18:48:00.738Z,100.00
2022-10-03T18:51:12.925Z,100.00
2022-10-03T18:54:33.398Z,100.00
2022-10-03T18:57:49.290Z,100.00
2022-10-03T19:01:02.875Z,100.00
2022-10-03T19:04:30.547Z,100.00
2022-10-03T19:07:32.996Z,100.00
2022-10-03T19:10:35.716Z,100.00
2022-10-03T19:14:11.394Z,100.00
2022-10-03T19:17:52.677Z,100.00
2022-10-03T19:21:05.729Z,100.00
2022-10-03T19:24:30.518Z,100.00
2022-10-03T19:27:30.557Z,100.00
2022-10-03T19:30:39.807Z,100.00
2022-10-03T19:33:48.291Z,100.00
2022-10-03T19:36:53.489Z,100.00
2022-10-03T19:39:59.499Z,100.00
2022-10-03T19:43:06.672Z,100.00
2022-10-03T19:46:34.937Z,100.00
2022-10-03T19:49:53.477Z,100.00
2022-10-03T19:52:59.324Z,100.00
2022-10-03T19:56:05.262Z,100.00
2022-10-03T19:59:18.791Z,100.00
2022-10-03T20:02:13.464Z,100.00
2022-10-03T20:05:19.325Z,100.00
2022-10-03T20:08:44.781Z,100.00
2022-10-03T20:12:03.296Z,100.00
2022-10-03T20:15:09.008Z,100.00
2022-10-03T20:18:15.304Z,100.00
2022-10-03T20:21:25.650Z,100.00
2022-10-03T20:24:45.255Z,100.00
2022-10-03T20:27:54.406Z,100.00
2022-10-03T20:31:06.250Z,100.00
2022-10-03T20:34:13.700Z,100.00
2022-10-03T20:37:36.476Z,100.00
2022-10-03T20:40:52.624Z,100.00
2022-10-03T20:44:11.095Z,100.00
2022-10-03T20:47:30.042Z,100.00
2022-10-03T20:50:56.692Z,100.00
2022-10-03T20:54:03.552Z,100.00
2022-10-03T20:57:19.049Z,100.00
2022-10-03T21:00:38.872Z,100.00
2022-10-03T21:03:58.401Z,100.00
2022-10-03T21:07:12.805Z,100.00
2022-10-03T21:10:34.718Z,100.00
2022-10-03T21:13:58.473Z,100.00
2022-10-03T21:17:05.305Z,100.00
2022-10-03T21:20:18.060Z,100.00
2022-10-03T21:23:33.578Z,100.00
2022-10-03T21:26:42.413Z,100.00
2022-10-03T21:29:50.134Z,100.00
2022-10-03T21:33:14.600Z,100.00
2022-10-03T21:36:24.295Z,100.00
2022-10-03T21:39:37.253Z,100.00
2022-10-03T21:42:53.457Z,100.00
2022-10-03T21:46:07.383Z,100.00
2022-10-03T21:49:48.111Z,100.00
2022-10-03T21:53:25.977Z,100.00
2022-10-03T21:56:52.535Z,100.00
2022-10-03T22:00:17.692Z,100.00
2022-10-03T22:03:45.520Z,100.00
2022-10-03T22:07:17.706Z,100.00
2022-10-03T22:10:42.787Z,100.00
2022-10-03T22:13:51.112Z,100.00
2022-10-03T22:17:23.367Z,100.00
2022-10-03T22:20:37.776Z,100.00
2022-10-03T22:24:00.553Z,100.00
2022-10-03T22:27:13.419Z,100.00
2022-10-03T22:30:32.608Z,100.00
2022-10-03T22:33:53.243Z,100.00
2022-10-03T22:36:58.713Z,100.00
2022-10-03T22:40:05.810Z,100.00
2022-10-03T22:43:07.780Z,100.00
2022-10-03T22:46:15.465Z,100.00
2022-10-03T22:49:27.075Z,100.00
2022-10-03T22:52:40.330Z,100.00
2022-10-03T22:55:39.666Z,100.00
2022-10-03T22:58:45.086Z,100.00
2022-10-03T23:01:51.135Z,100.00
2022-10-03T23:05:07.719Z,100.00
2022-10-03T23:08:55.645Z,100.00
2022-10-03T23:12:02.685Z,100.00
2022-10-03T23:15:08.000Z,100.00
2022-10-03T23:18:24.879Z,100.00
2022-10-03T23:21:30.271Z,100.00
2022-10-03T23:24:47.840Z,100.00
2022-10-03T23:28:05.158Z,100.00
2022-10-03T23:31:11.604Z,100.00
2022-10-03T23:34:16.809Z,100.00
2022-10-03T23:37:29.799Z,100.00
2022-10-03T23:40:52.530Z,100.00
2022-10-03T23:44:04.288Z,100.00
2022-10-03T23:47:10.739Z,100.00
2022-10-03T23:50:17.063Z,100.00
2022-10-03T23:53:22.209Z,100.00
2022-10-03T23:56:51.534Z,100.00
2022-10-03T23:59:57.748Z,100.00
